Time;durP1;ratioP1;P1;durP2;ratioP2;P2;SDS_P1;SDS_P2;PMS_P1;PMS_P2;Temp;Humidity;BMP_temperature;BMP_pressure;BME280_temperature;BME280_humidity;BME280_pressure;Samples;Min_cycle;Max_cycle;Signal;HPM_P1;HPM_P2
2023/10/15 00:01:32;;;;;;;7.05;1.38;;;7.50;99.90;;;;;;7373690;19;20105;-64
2023/10/15 00:03:59;;;;;;;6.90;1.20;;;7.40;99.90;;;;;;7375462;19;20505;-61
2023/10/15 00:06:25;;;;;;;8.07;1.73;;;7.40;99.90;;;;;;7371955;19;20033;-61
2023/10/15 00:08:52;;;;;;;6.43;1.00;;;7.30;99.90;;;;;;7375343;19;20033;-61
2023/10/15 00:11:18;;;;;;;5.72;1.30;;;7.20;99.90;;;;;;7371180;19;20808;-65
2023/10/15 00:13:44;;;;;;;5.65;1.35;;;7.20;99.90;;;;;;7371765;19;20113;-64
2023/10/15 00:16:21;;;;;;;10.35;1.40;;;7.20;99.90;;;;;;7368166;19;20035;-62
2023/10/15 00:18:47;;;;;;;5.90;1.20;;;7.20;99.90;;;;;;7370492;19;20014;-64
2023/10/15 00:21:14;;;;;;;5.63;1.05;;;7.20;99.90;;;;;;7366224;19;20018;-62
2023/10/15 00:23:44;;;;;;;6.32;1.20;;;7.20;99.90;;;;;;7375011;19;20033;-62
2023/10/15 00:26:12;;;;;;;3.72;1.40;;;7.30;99.90;;;;;;7372847;19;20044;-62
2023/10/15 00:28:44;;;;;;;3.38;1.27;;;7.30;99.90;;;;;;7374121;19;20018;-65
2023/10/15 00:31:14;;;;;;;9.05;1.63;;;7.30;99.90;;;;;;7373743;19;20164;-64
2023/10/15 00:33:46;;;;;;;4.95;0.95;;;7.30;99.90;;;;;;7373718;19;20026;-65
2023/10/15 00:36:13;;;;;;;3.47;1.10;;;7.30;99.90;;;;;;7378162;19;20123;-62
2023/10/15 00:38:43;;;;;;;5.72;0.85;;;7.30;99.90;;;;;;7372504;19;20546;-66
2023/10/15 00:41:10;;;;;;;5.65;1.10;;;7.30;99.90;;;;;;7369268;19;20086;-63
2023/10/15 00:43:48;;;;;;;3.58;0.93;;;7.30;99.90;;;;;;7374349;19;20022;-62
2023/10/15 00:46:17;;;;;;;7.47;1.10;;;7.30;99.90;;;;;;7373403;19;20042;-62
2023/10/15 00:48:43;;;;;;;6.28;1.00;;;7.30;99.90;;;;;;7376718;19;20038;-65
2023/10/15 00:51:13;;;;;;;4.43;1.20;;;7.30;99.90;;;;;;7368898;19;20475;-65
2023/10/15 00:53:50;;;;;;;4.93;1.13;;;7.30;99.90;;;;;;7375055;19;20026;-64
2023/10/15 00:56:22;;;;;;;3.78;0.90;;;7.30;99.90;;;;;;7372915;19;20570;-65
2023/10/15 01:01:26;;;;;;;5.65;1.30;;;7.30;99.90;;;;;;7371979;19;20052;-65
2023/10/15 01:03:59;;;;;;;6.35;1.33;;;7.30;99.90;;;;;;7376815;19;20022;-62
2023/10/15 01:11:50;;;;;;;4.50;1.00;;;7.30;99.90;;;;;;7375877;19;20066;-62
2023/10/15 01:14:28;;;;;;;4.28;1.00;;;7.30;99.90;;;;;;7373280;19;20018;-62
2023/10/15 01:16:55;;;;;;;7.05;1.48;;;7.30;99.90;;;;;;7363536;19;20086;-61
2023/10/15 01:19:32;;;;;;;4.90;1.83;;;7.20;99.90;;;;;;7373834;19;20019;-62
2023/10/15 01:22:04;;;;;;;6.90;1.02;;;7.30;99.90;;;;;;7371581;19;20110;-62
2023/10/15 01:24:38;;;;;;;5.25;1.00;;;7.30;99.90;;;;;;7372445;19;20458;-64
2023/10/15 01:27:09;;;;;;;4.10;0.87;;;7.20;99.90;;;;;;7372204;19;20665;-65
2023/10/15 01:29:42;;;;;;;4.43;1.17;;;7.20;99.90;;;;;;7373677;19;20018;-61
2023/10/15 01:32:30;;;;;;;3.92;1.13;;;7.20;99.90;;;;;;7373167;19;20019;-61
2023/10/15 01:35:00;;;;;;;4.20;0.90;;;7.20;99.90;;;;;;7374417;19;20448;-64
2023/10/15 01:37:27;;;;;;;4.80;0.88;;;7.10;99.90;;;;;;7371422;19;20018;-61
2023/10/15 01:40:24;;;;;;;3.65;0.90;;;7.10;99.90;;;;;;7375979;19;20025;-62
2023/10/15 01:42:53;;;;;;;3.40;0.88;;;7.10;99.90;;;;;;7370419;19;20023;-60
2023/10/15 01:45:31;;;;;;;4.07;1.02;;;7.20;99.90;;;;;;7375048;19;20011;-61
2023/10/15 01:48:13;;;;;;;3.30;0.95;;;7.10;99.90;;;;;;7373630;19;20011;-60
2023/10/15 01:50:49;;;;;;;3.63;0.90;;;7.10;99.90;;;;;;7378194;19;20033;-61
2023/10/15 01:53:17;;;;;;;5.05;1.08;;;7.10;99.90;;;;;;7377947;19;20027;-63
2023/10/15 01:55:52;;;;;;;3.67;1.10;;;7.10;99.90;;;;;;7380676;19;20015;-61
2023/10/15 01:58:32;;;;;;;4.53;1.08;;;7.00;99.90;;;;;;7379468;19;20127;-61
2023/10/15 02:01:31;;;;;;;6.18;1.30;;;7.00;99.90;;;;;;7377874;19;20022;-61
2023/10/15 02:03:58;;;;;;;5.97;1.15;;;6.90;99.90;;;;;;7376880;19;20039;-61
2023/10/15 02:06:25;;;;;;;4.15;1.15;;;6.90;99.90;;;;;;7379705;19;20081;-62
2023/10/15 02:08:51;;;;;;;5.07;1.15;;;6.80;99.90;;;;;;7379990;19;20031;-62
2023/10/15 02:11:24;;;;;;;5.60;0.90;;;6.80;99.90;;;;;;7379719;19;20521;-60
2023/10/15 02:13:51;;;;;;;3.45;1.20;;;6.70;99.90;;;;;;7381805;19;20550;-62
2023/10/15 02:16:25;;;;;;;4.93;1.38;;;6.70;99.90;;;;;;7378315;19;20070;-62
2023/10/15 02:18:52;;;;;;;5.72;1.20;;;6.60;99.90;;;;;;7375853;19;20600;-65
2023/10/15 02:21:19;;;;;;;6.80;1.08;;;6.60;99.90;;;;;;7375434;19;20022;-64
2023/10/15 02:23:52;;;;;;;4.60;1.23;;;6.50;99.90;;;;;;7379563;19;20022;-65
2023/10/15 02:26:29;;;;;;;4.85;0.93;;;6.50;99.90;;;;;;7378843;19;20078;-62
2023/10/15 02:29:05;;;;;;;4.28;1.13;;;6.40;99.90;;;;;;7382116;19;20137;-62
2023/10/15 02:31:36;;;;;;;5.13;1.13;;;6.30;99.90;;;;;;7378769;19;20029;-61
2023/10/15 02:34:04;;;;;;;4.00;1.10;;;6.30;99.90;;;;;;7379476;19;20018;-61
2023/10/15 02:36:30;;;;;;;6.35;1.52;;;6.20;99.90;;;;;;7379643;19;20018;-61
2023/10/15 02:38:56;;;;;;;4.57;1.15;;;6.20;99.90;;;;;;7381016;19;20042;-61
2023/10/15 02:41:40;;;;;;;6.93;1.40;;;6.20;99.90;;;;;;7378638;19;20021;-62
2023/10/15 02:44:12;;;;;;;3.33;0.98;;;6.20;99.90;;;;;;7378655;19;20022;-61
2023/10/15 02:46:47;;;;;;;5.38;1.40;;;6.30;99.90;;;;;;7378982;19;20015;-61
2023/10/15 02:49:15;;;;;;;4.93;1.38;;;6.30;99.90;;;;;;7379988;19;20014;-65
2023/10/15 02:51:42;;;;;;;3.92;0.90;;;6.30;99.90;;;;;;7377896;19;20643;-64
2023/10/15 02:54:18;;;;;;;3.45;1.10;;;6.20;99.90;;;;;;7375901;19;20035;-63
2023/10/15 02:56:45;;;;;;;7.63;1.42;;;6.20;99.90;;;;;;7377645;19;20018;-62
2023/10/15 02:59:15;;;;;;;5.72;1.27;;;6.20;99.90;;;;;;7375319;19;20019;-61
2023/10/15 03:01:45;;;;;;;3.17;1.00;;;6.10;99.90;;;;;;7378802;19;20027;-62
2023/10/15 03:04:12;;;;;;;6.28;1.20;;;6.10;99.90;;;;;;7375398;19;20128;-62
2023/10/15 03:06:41;;;;;;;2.78;0.73;;;6.10;99.90;;;;;;7375711;19;20014;-62
2023/10/15 03:09:11;;;;;;;2.70;0.80;;;6.00;99.90;;;;;;7377429;19;20014;-62
2023/10/15 03:11:38;;;;;;;5.05;1.13;;;6.00;99.90;;;;;;7377038;19;20018;-61
2023/10/15 03:14:06;;;;;;;5.75;1.00;;;6.00;99.90;;;;;;7373698;19;20054;-64
2023/10/15 03:16:33;;;;;;;5.68;1.08;;;6.00;99.90;;;;;;7376876;19;20113;-61
2023/10/15 03:19:09;;;;;;;4.72;1.10;;;6.00;99.90;;;;;;7374510;19;20015;-65
2023/10/15 03:21:39;;;;;;;6.15;1.10;;;5.90;99.90;;;;;;7376939;19;20094;-61
2023/10/15 03:24:07;;;;;;;4.78;1.00;;;5.90;99.90;;;;;;7374724;19;20022;-64
2023/10/15 03:26:35;;;;;;;3.30;1.00;;;5.90;99.90;;;;;;7375521;19;20019;-61
2023/10/15 03:29:07;;;;;;;5.03;1.25;;;5.80;99.90;;;;;;7380166;19;20018;-61
2023/10/15 03:31:36;;;;;;;4.15;1.17;;;5.80;99.90;;;;;;7378643;19;20881;-61
2023/10/15 03:36:57;;;;;;;5.28;1.30;;;5.70;99.90;;;;;;7375360;19;20474;-64
2023/10/15 03:44:59;;;;;;;9.07;1.40;;;5.70;99.90;;;;;;7377316;19;20018;-67
2023/10/15 03:47:26;;;;;;;3.45;1.17;;;5.70;99.90;;;;;;7377543;19;20032;-65
2023/10/15 03:49:55;;;;;;;3.90;1.10;;;5.70;99.90;;;;;;7378588;19;20018;-65
2023/10/15 03:52:21;;;;;;;6.35;1.33;;;5.70;99.90;;;;;;7372892;19;20019;-65
2023/10/15 03:54:51;;;;;;;7.05;1.30;;;5.70;99.90;;;;;;7377057;19;20019;-65
2023/10/15 03:57:19;;;;;;;2.70;1.10;;;5.60;99.90;;;;;;7378012;19;20101;-64
2023/10/15 03:59:55;;;;;;;5.55;1.52;;;5.60;99.90;;;;;;7374719;19;20029;-64
2023/10/15 04:05:08;;;;;;;4.15;1.02;;;5.40;99.90;;;;;;7375910;19;20601;-65
2023/10/15 04:07:48;;;;;;;4.07;0.95;;;5.40;99.90;;;;;;7376126;19;20021;-65
2023/10/15 04:10:22;;;;;;;4.78;1.20;;;5.30;99.90;;;;;;7374302;19;20026;-65
2023/10/15 04:12:49;;;;;;;5.28;1.05;;;5.30;99.90;;;;;;7371433;19;20665;-65
2023/10/15 04:15:17;;;;;;;4.30;1.00;;;5.30;99.90;;;;;;7372747;19;20025;-65
2023/10/15 04:17:45;;;;;;;6.70;1.50;;;5.20;99.90;;;;;;7375909;19;20058;-65
2023/10/15 04:20:15;;;;;;;4.10;1.00;;;5.20;99.90;;;;;;7371935;19;20022;-65
2023/10/15 04:22:46;;;;;;;4.70;1.27;;;5.10;99.90;;;;;;7375318;19;20082;-65
2023/10/15 04:25:26;;;;;;;7.22;1.30;;;5.10;99.90;;;;;;7375680;19;20107;-65
2023/10/15 04:27:54;;;;;;;6.53;1.50;;;5.10;99.90;;;;;;7375518;19;20026;-66
2023/10/15 04:30:21;;;;;;;7.07;1.63;;;5.10;99.90;;;;;;7377420;19;20039;-65
2023/10/15 04:32:47;;;;;;;5.30;1.40;;;5.10;99.90;;;;;;7373969;19;20049;-65
2023/10/15 04:35:25;;;;;;;5.60;1.20;;;5.10;99.90;;;;;;7374247;19;20744;-60
2023/10/15 04:37:52;;;;;;;7.18;1.65;;;5.20;99.90;;;;;;7374539;19;20492;-63
2023/10/15 04:40:23;;;;;;;5.18;1.20;;;5.20;99.90;;;;;;7373322;19;20371;-63
2023/10/15 04:42:50;;;;;;;6.47;1.77;;;5.30;99.90;;;;;;7373034;19;20053;-63
2023/10/15 04:45:20;;;;;;;4.50;1.20;;;5.40;99.90;;;;;;7374513;19;20010;-65
2023/10/15 04:47:59;;;;;;;5.50;1.17;;;5.50;99.90;;;;;;7371403;19;20018;-64
2023/10/15 04:50:32;;;;;;;2.63;1.10;;;5.50;99.90;;;;;;7371759;19;20015;-65
2023/10/15 04:53:12;;;;;;;7.53;1.65;;;5.60;99.90;;;;;;7368156;19;20030;-64
2023/10/15 04:55:40;;;;;;;7.88;1.27;;;5.70;99.90;;;;;;7372546;19;20014;-64
2023/10/15 04:58:06;;;;;;;4.88;0.68;;;5.70;99.90;;;;;;7374992;19;20010;-64
2023/10/15 05:00:35;;;;;;;5.57;1.10;;;5.80;99.90;;;;;;7370875;19;20078;-65
2023/10/15 05:03:02;;;;;;;6.63;1.05;;;5.90;99.90;;;;;;7371182;19;20998;-65
2023/10/15 05:05:30;;;;;;;3.15;0.70;;;6.00;99.90;;;;;;7373074;19;20026;-64
2023/10/15 05:07:59;;;;;;;5.18;1.15;;;6.00;99.90;;;;;;7375188;19;20014;-65
2023/10/15 05:10:30;;;;;;;7.15;1.40;;;6.10;99.90;;;;;;7373131;19;20033;-64
2023/10/15 05:12:59;;;;;;;6.10;0.80;;;6.20;99.90;;;;;;7375058;19;20026;-65
2023/10/15 05:15:26;;;;;;;4.45;0.82;;;6.20;99.90;;;;;;7372507;19;20030;-64
2023/10/15 05:17:52;;;;;;;5.57;1.05;;;6.30;99.90;;;;;;7370051;19;20849;-62
2023/10/15 05:20:20;;;;;;;5.82;1.20;;;6.30;99.90;;;;;;7373035;19;20026;-62
2023/10/15 05:22:47;;;;;;;5.13;0.93;;;6.30;99.90;;;;;;7374592;19;20031;-62
2023/10/15 05:25:20;;;;;;;3.88;1.02;;;6.40;99.90;;;;;;7366331;19;20491;-62
2023/10/15 05:27:51;;;;;;;3.53;1.13;;;6.40;99.90;;;;;;7369588;19;20014;-61
2023/10/15 05:30:18;;;;;;;5.60;0.80;;;6.40;99.90;;;;;;7375117;19;20054;-65
2023/10/15 05:32:44;;;;;;;9.02;1.33;;;6.40;99.90;;;;;;7376581;19;20082;-65
2023/10/15 05:35:11;;;;;;;3.85;0.60;;;6.40;99.90;;;;;;7371216;19;20789;-65
2023/10/15 05:37:42;;;;;;;4.20;0.95;;;6.40;99.90;;;;;;7374012;19;20042;-65
2023/10/15 05:40:08;;;;;;;5.75;1.00;;;6.40;99.90;;;;;;7370016;19;20018;-65
2023/10/15 05:42:35;;;;;;;3.33;0.90;;;6.40;99.90;;;;;;7370512;19;20074;-66
2023/10/15 05:45:06;;;;;;;2.15;0.68;;;6.40;99.90;;;;;;7365441;19;20026;-64
2023/10/15 05:47:36;;;;;;;3.15;0.80;;;6.50;99.90;;;;;;7364718;19;20022;-64
2023/10/15 05:50:04;;;;;;;3.33;1.08;;;6.50;99.90;;;;;;7367312;19;20089;-61
2023/10/15 05:52:31;;;;;;;4.05;1.10;;;6.50;99.90;;;;;;7366283;19;20022;-62
2023/10/15 05:54:58;;;;;;;4.43;0.95;;;6.40;99.90;;;;;;7363012;19;20621;-61
2023/10/15 05:57:24;;;;;;;3.72;1.15;;;6.50;99.90;;;;;;7363315;19;20029;-61
2023/10/15 05:59:50;;;;;;;4.63;0.73;;;6.50;99.90;;;;;;7367512;19;20992;-61
2023/10/15 06:02:17;;;;;;;2.60;0.70;;;6.40;99.90;;;;;;7368414;19;20103;-61
2023/10/15 06:04:47;;;;;;;3.42;0.85;;;6.40;99.90;;;;;;7368462;19;20011;-61
2023/10/15 06:07:15;;;;;;;4.78;1.30;;;6.40;99.90;;;;;;7368616;19;20023;-62
2023/10/15 06:09:44;;;;;;;2.05;0.70;;;6.30;99.90;;;;;;7368230;19;20031;-64
2023/10/15 06:12:10;;;;;;;3.45;1.05;;;6.30;99.90;;;;;;7366830;19;20032;-66
2023/10/15 06:14:40;;;;;;;2.00;0.80;;;6.30;99.90;;;;;;7365403;19;20057;-65
2023/10/15 06:17:09;;;;;;;2.30;0.80;;;6.30;99.90;;;;;;7368114;19;20515;-66
2023/10/15 06:19:35;;;;;;;5.93;0.88;;;6.30;99.90;;;;;;7369469;19;20027;-61
2023/10/15 06:22:02;;;;;;;2.95;0.90;;;6.30;99.90;;;;;;7367590;19;20054;-63
2023/10/15 06:24:28;;;;;;;3.83;0.80;;;6.40;99.90;;;;;;7367135;19;20035;-61
2023/10/15 06:26:54;;;;;;;2.63;0.57;;;6.50;99.90;;;;;;7366249;19;20011;-61
2023/10/15 06:29:21;;;;;;;5.43;1.13;;;6.50;99.90;;;;;;7369365;19;20365;-63
2023/10/15 06:31:48;;;;;;;3.55;0.93;;;6.50;99.90;;;;;;7369460;19;20860;-65
2023/10/15 06:34:15;;;;;;;4.97;1.13;;;6.50;99.90;;;;;;7363977;19;20022;-65
2023/10/15 06:36:42;;;;;;;2.88;0.82;;;6.50;99.90;;;;;;7367963;19;20018;-65
2023/10/15 06:39:08;;;;;;;2.83;0.60;;;6.50;99.90;;;;;;7370012;19;20488;-63
2023/10/15 06:41:36;;;;;;;2.80;1.27;;;6.50;99.90;;;;;;7373305;19;20810;-66
2023/10/15 06:44:04;;;;;;;3.15;1.05;;;6.50;99.90;;;;;;7369879;19;20828;-65
2023/10/15 06:46:33;;;;;;;2.75;0.77;;;6.40;99.90;;;;;;7366558;19;20030;-65
2023/10/15 06:48:59;;;;;;;2.67;0.60;;;6.40;99.90;;;;;;7372772;19;20030;-64
2023/10/15 06:51:26;;;;;;;3.40;0.73;;;6.40;99.90;;;;;;7370793;19;20060;-65
2023/10/15 06:53:52;;;;;;;2.17;0.75;;;6.40;99.90;;;;;;7374989;19;20011;-65
2023/10/15 06:56:19;;;;;;;5.25;0.60;;;6.40;99.90;;;;;;7368942;19;20025;-65
2023/10/15 06:58:48;;;;;;;1.00;0.40;;;6.40;99.90;;;;;;7373788;19;20018;-65
2023/10/15 07:01:14;;;;;;;3.85;0.70;;;6.30;99.90;;;;;;7369402;19;20093;-65
2023/10/15 07:03:41;;;;;;;2.55;0.60;;;6.40;99.90;;;;;;7372677;19;20852;-62
2023/10/15 07:06:08;;;;;;;2.95;0.70;;;6.40;99.90;;;;;;7368254;19;20046;-63
2023/10/15 07:08:34;;;;;;;1.75;0.60;;;6.30;99.90;;;;;;7374336;19;20470;-65
2023/10/15 07:11:01;;;;;;;1.77;0.40;;;6.40;99.90;;;;;;7371382;19;20022;-62
2023/10/15 07:13:27;;;;;;;1.05;0.50;;;6.30;99.90;;;;;;7372073;19;20028;-65
2023/10/15 07:15:54;;;;;;;3.05;0.60;;;6.40;99.90;;;;;;7369138;19;20018;-61
2023/10/15 07:18:23;;;;;;;1.83;0.70;;;6.40;99.90;;;;;;7372585;19;20021;-63
2023/10/15 07:20:49;;;;;;;5.85;1.13;;;6.40;99.90;;;;;;7373690;19;20085;-65
2023/10/15 07:23:16;;;;;;;1.33;0.77;;;6.40;99.90;;;;;;7374569;19;20014;-65
2023/10/15 07:25:45;;;;;;;1.27;0.47;;;6.40;99.90;;;;;;7364376;19;20014;-64
2023/10/15 07:28:11;;;;;;;2.45;0.60;;;6.40;99.90;;;;;;7373406;19;20484;-65
2023/10/15 07:30:38;;;;;;;2.22;0.70;;;6.50;99.90;;;;;;7369748;19;20028;-64
2023/10/15 07:33:05;;;;;;;2.35;0.75;;;6.50;99.90;;;;;;7373240;19;20027;-64
2023/10/15 07:35:31;;;;;;;5.90;0.70;;;6.50;99.90;;;;;;7369172;19;20106;-64
2023/10/15 07:37:58;;;;;;;3.00;0.80;;;6.50;99.90;;;;;;7372264;19;20034;-64
2023/10/15 07:40:27;;;;;;;5.28;1.05;;;6.50;99.90;;;;;;7369275;19;21118;-64
2023/10/15 07:42:59;;;;;;;2.20;0.73;;;6.50;99.90;;;;;;7372527;19;21079;-65
2023/10/15 07:45:27;;;;;;;4.78;1.20;;;6.60;99.90;;;;;;7369707;19;20026;-64
2023/10/15 07:47:55;;;;;;;2.08;0.70;;;6.60;99.90;;;;;;7374910;19;20018;-64
2023/10/15 07:50:23;;;;;;;5.45;0.90;;;6.60;99.90;;;;;;7365285;19;20082;-63
2023/10/15 07:52:51;;;;;;;3.15;0.70;;;6.60;99.90;;;;;;7373554;19;20021;-64
2023/10/15 07:55:17;;;;;;;5.28;0.85;;;6.60;99.90;;;;;;7372053;19;20516;-64
2023/10/15 07:57:44;;;;;;;4.75;1.02;;;6.60;99.90;;;;;;7375177;19;20033;-65
2023/10/15 08:00:16;;;;;;;6.18;0.88;;;6.60;99.90;;;;;;7371919;19;20022;-63
2023/10/15 08:02:45;;;;;;;;;;;6.60;99.90;;;;;;7376684;19;20074;-64
2023/10/15 08:05:15;;;;;;;6.18;1.00;;;6.70;99.90;;;;;;7373997;19;19918;-65
2023/10/15 08:07:43;;;;;;;4.93;1.02;;;6.80;99.90;;;;;;7373264;19;20026;-65
2023/10/15 08:10:10;;;;;;;6.07;0.80;;;6.80;99.90;;;;;;7374303;19;20018;-65
2023/10/15 08:12:37;;;;;;;5.80;1.05;;;7.00;99.90;;;;;;7373366;19;20007;-65
2023/10/15 08:15:04;;;;;;;4.68;1.00;;;7.80;99.90;;;;;;7369352;19;20106;-66
2023/10/15 08:17:31;;;;;;;6.07;1.10;;;8.70;99.90;;;;;;7368722;19;20014;-62
2023/10/15 08:19:57;;;;;;;3.28;0.80;;;9.80;99.90;;;;;;7375878;19;20477;-62
2023/10/15 08:22:25;;;;;;;1.83;0.50;;;10.70;99.90;;;;;;7372914;19;20011;-62
2023/10/15 08:24:51;;;;;;;2.97;0.63;;;11.30;99.90;;;;;;7373230;19;20101;-62
2023/10/15 08:27:17;;;;;;;4.00;0.60;;;11.90;99.90;;;;;;7372927;19;20022;-65
2023/10/15 08:29:46;;;;;;;3.95;0.68;;;12.60;99.90;;;;;;7367849;19;20042;-66
2023/10/15 08:32:18;;;;;;;3.28;0.55;;;13.00;99.90;;;;;;7372794;19;20035;-65
2023/10/15 08:34:47;;;;;;;3.30;0.80;;;12.30;99.90;;;;;;7371243;19;20018;-66
2023/10/15 08:37:14;;;;;;;3.03;0.60;;;12.20;99.90;;;;;;7369224;19;20015;-66
2023/10/15 08:39:40;;;;;;;4.50;0.93;;;12.10;99.90;;;;;;7372874;19;20024;-66
2023/10/15 08:42:13;;;;;;;3.38;0.70;;;12.80;99.90;;;;;;7372946;19;20452;-65
2023/10/15 08:44:42;;;;;;;3.83;0.77;;;12.90;99.90;;;;;;7372731;19;20039;-64
2023/10/15 08:47:10;;;;;;;3.38;0.70;;;13.20;99.90;;;;;;7376741;19;20006;-64
2023/10/15 08:49:48;;;;;;;2.45;0.60;;;13.30;99.90;;;;;;7379486;19;20107;-65
2023/10/15 08:52:19;;;;;;;4.25;0.85;;;13.40;99.90;;;;;;7379098;19;20014;-65
2023/10/15 08:54:46;;;;;;;2.40;0.60;;;14.00;99.90;;;;;;7371838;19;20038;-67
2023/10/15 08:57:14;;;;;;;3.92;0.73;;;13.60;99.90;;;;;;7374649;19;20266;-66
2023/10/15 08:59:43;;;;;;;4.45;1.10;;;13.00;99.90;;;;;;7366709;19;20014;-67
2023/10/15 09:02:09;;;;;;;3.15;0.70;;;12.60;99.90;;;;;;7373389;19;20558;-66
2023/10/15 09:04:36;;;;;;;2.58;0.77;;;12.50;99.90;;;;;;7378802;19;20466;-65
2023/10/15 09:07:03;;;;;;;3.40;0.65;;;12.70;99.90;;;;;;7377888;19;20025;-64
2023/10/15 09:09:30;;;;;;;6.20;0.93;;;13.50;99.90;;;;;;7379482;19;20022;-64
2023/10/15 09:11:56;;;;;;;4.22;0.80;;;14.10;99.90;;;;;;7380963;19;20067;-64
2023/10/15 09:14:45;;;;;;;2.47;0.70;;;14.00;99.90;;;;;;7378133;19;20847;-65
2023/10/15 09:17:14;;;;;;;2.97;0.85;;;13.20;99.90;;;;;;7382310;19;20014;-64
2023/10/15 09:19:46;;;;;;;2.97;0.75;;;12.90;99.90;;;;;;7380344;19;20023;-64
2023/10/15 09:22:15;;;;;;;5.38;1.40;;;12.70;99.90;;;;;;7377794;19;20011;-64
2023/10/15 09:24:45;;;;;;;4.97;1.42;;;12.20;99.90;;;;;;7380850;19;20011;-64
2023/10/15 09:27:13;;;;;;;7.53;0.80;;;12.00;99.90;;;;;;7376692;19;20107;-65
2023/10/15 09:29:41;;;;;;;6.68;1.23;;;12.20;99.90;;;;;;7371865;19;20026;-67
2023/10/15 09:32:09;;;;;;;5.68;1.10;;;12.80;99.90;;;;;;7376877;19;20475;-63
2023/10/15 09:34:38;;;;;;;6.00;1.00;;;13.70;99.90;;;;;;7374025;19;20030;-64
2023/10/15 09:37:06;;;;;;;5.63;1.20;;;14.60;99.90;;;;;;7375290;19;20014;-65
2023/10/15 09:39:34;;;;;;;5.03;1.33;;;15.40;99.90;;;;;;7376031;19;20029;-65
2023/10/15 09:42:03;;;;;;;5.50;1.50;;;15.70;99.90;;;;;;7375517;19;20660;-67
2023/10/15 09:44:33;;;;;;;3.58;0.95;;;16.20;99.90;;;;;;7373789;19;20014;-65
2023/10/15 09:47:02;;;;;;;4.20;1.02;;;16.60;99.90;;;;;;7371246;19;20021;-67
2023/10/15 09:49:33;;;;;;;3.58;1.10;;;16.80;99.90;;;;;;7374206;19;20022;-66
2023/10/15 09:52:06;;;;;;;3.20;0.75;;;17.30;99.90;;;;;;7371234;19;20082;-65
2023/10/15 09:54:34;;;;;;;4.05;0.95;;;17.20;99.90;;;;;;7372384;19;20474;-67
2023/10/15 09:57:05;;;;;;;6.50;0.80;;;17.70;99.90;;;;;;7371308;19;20495;-67
2023/10/15 09:59:31;;;;;;;;;;;17.70;99.90;;;;;;7371071;19;20021;-64
2023/10/15 10:02:05;;;;;;;4.20;1.27;;;17.70;99.90;;;;;;7368245;19;19980;-69
2023/10/15 10:05:05;;;;;;;3.67;0.90;;;18.30;99.90;;;;;;7364431;19;20018;-68
2023/10/15 10:07:52;;;;;;;4.88;1.00;;;17.40;99.90;;;;;;7368295;19;20018;-64
2023/10/15 10:10:38;;;;;;;5.85;1.02;;;16.50;99.90;;;;;;7374491;19;20098;-68
2023/10/15 10:13:40;;;;;;;4.38;0.75;;;16.80;99.90;;;;;;7375338;19;20035;-67
2023/10/15 10:16:24;;;;;;;6.55;1.10;;;17.30;99.90;;;;;;7370163;19;20029;-65
2023/10/15 10:18:50;;;;;;;4.05;0.98;;;17.20;99.90;;;;;;7378450;19;20019;-65
2023/10/15 10:21:17;;;;;;;5.25;1.10;;;16.40;99.90;;;;;;7381340;19;20018;-64
2023/10/15 10:23:44;;;;;;;4.45;1.17;;;15.30;99.90;;;;;;7374823;19;20041;-64
2023/10/15 10:26:12;;;;;;;3.60;1.00;;;14.10;99.90;;;;;;7376557;19;20028;-63
2023/10/15 10:28:39;;;;;;;4.68;1.20;;;13.30;99.90;;;;;;7376714;19;20084;-62
2023/10/15 10:31:08;;;;;;;6.10;1.13;;;12.50;99.90;;;;;;7375605;19;20023;-62
2023/10/15 10:33:56;;;;;;;6.05;1.13;;;11.80;99.90;;;;;;7376083;19;21017;-63
2023/10/15 10:36:27;;;;;;;4.20;1.25;;;11.60;99.90;;;;;;7376690;19;20572;-67
2023/10/15 10:39:00;;;;;;;5.38;1.00;;;11.30;99.90;;;;;;7375323;19;20497;-66
2023/10/15 10:41:59;;;;;;;5.18;1.10;;;11.30;99.90;;;;;;7375036;19;20696;-63
2023/10/15 10:44:26;;;;;;;7.43;1.55;;;11.50;99.90;;;;;;7375911;19;20014;-62
2023/10/15 10:46:52;;;;;;;8.23;1.60;;;12.10;99.90;;;;;;7374009;19;20026;-63
2023/10/15 10:49:37;;;;;;;4.88;1.05;;;12.90;99.90;;;;;;7370380;19;20025;-63
2023/10/15 10:52:14;;;;;;;5.03;1.30;;;12.80;99.90;;;;;;7376127;19;20022;-63
2023/10/15 10:54:41;;;;;;;2.92;1.23;;;12.80;99.90;;;;;;7377523;19;20372;-65
2023/10/15 10:57:08;;;;;;;4.70;0.95;;;13.10;99.90;;;;;;7377833;19;20090;-64
2023/10/15 10:59:36;;;;;;;6.32;1.30;;;13.70;99.90;;;;;;7376040;19;20034;-64
2023/10/15 11:02:07;;;;;;;5.05;0.93;;;14.60;99.90;;;;;;7372339;19;20030;-63
2023/10/15 11:04:33;;;;;;;3.92;0.93;;;15.70;99.90;;;;;;7375384;19;20018;-64
2023/10/15 11:07:00;;;;;;;5.88;0.95;;;16.20;99.90;;;;;;7371696;19;20482;-69
2023/10/15 11:09:28;;;;;;;6.03;1.10;;;16.90;99.90;;;;;;7370564;19;20494;-68
2023/10/15 11:11:56;;;;;;;6.28;1.10;;;17.20;99.90;;;;;;7374347;19;20018;-67
2023/10/15 11:14:24;;;;;;;4.45;1.00;;;17.80;99.90;;;;;;7372648;19;20018;-66
2023/10/15 11:16:51;;;;;;;4.28;1.20;;;17.70;99.90;;;;;;7372293;19;20058;-67
2023/10/15 11:19:21;;;;;;;4.55;1.33;;;18.70;99.90;;;;;;7372614;19;20017;-67
2023/10/15 11:21:49;;;;;;;5.47;0.90;;;18.20;99.90;;;;;;7376689;19;20010;-67
2023/10/15 11:24:16;;;;;;;4.82;1.15;;;18.80;99.90;;;;;;7375855;19;20183;-67
2023/10/15 11:26:44;;;;;;;3.20;0.95;;;18.90;99.90;;;;;;7371946;19;20093;-67
2023/10/15 11:29:12;;;;;;;5.15;1.00;;;19.00;99.70;;;;;;7372878;19;20021;-67
2023/10/15 11:31:43;;;;;;;4.72;1.17;;;19.20;99.70;;;;;;7373524;19;20021;-67
2023/10/15 11:34:14;;;;;;;4.78;1.40;;;19.50;99.90;;;;;;7373566;19;20019;-68
2023/10/15 11:36:43;;;;;;;4.63;1.00;;;19.60;98.70;;;;;;7373343;19;20029;-67
2023/10/15 11:42:03;;;;;;;2.50;0.90;;;20.10;96.10;;;;;;7371729;19;20398;-68
2023/10/15 11:44:33;;;;;;;2.95;0.80;;;20.40;92.10;;;;;;7374829;19;20011;-67
2023/10/15 11:47:00;;;;;;;2.88;0.60;;;20.60;91.10;;;;;;7370877;19;20031;-67
2023/10/15 11:49:30;;;;;;;5.30;1.05;;;20.50;86.00;;;;;;7370615;19;20033;-67
2023/10/15 11:51:56;;;;;;;4.03;1.20;;;20.70;85.70;;;;;;7372604;19;20018;-67
2023/10/15 11:54:32;;;;;;;3.42;0.90;;;20.70;83.70;;;;;;7373764;19;20106;-67
2023/10/15 11:57:05;;;;;;;4.55;0.60;;;20.50;72.40;;;;;;7373369;19;20027;-67
2023/10/15 11:59:31;;;;;;;5.20;1.20;;;20.50;80.50;;;;;;7375012;19;20037;-68
2023/10/15 12:02:01;;;;;;;3.40;0.80;;;20.40;76.90;;;;;;7378057;19;20026;-66
2023/10/15 12:04:28;;;;;;;4.93;0.77;;;20.20;77.80;;;;;;7384106;19;20633;-66
2023/10/15 12:06:54;;;;;;;5.18;0.90;;;20.40;76.70;;;;;;7380317;19;20046;-67
2023/10/15 12:09:26;;;;;;;5.18;1.00;;;19.70;69.40;;;;;;7373013;19;20022;-68
2023/10/15 12:11:53;;;;;;;2.63;0.80;;;19.90;76.30;;;;;;7371416;19;20076;-67
2023/10/15 12:14:19;;;;;;;6.10;1.20;;;19.80;75.30;;;;;;7376081;19;20078;-67
2023/10/15 12:16:46;;;;;;;3.78;0.80;;;20.10;74.40;;;;;;7374085;19;20018;-68
2023/10/15 12:19:12;;;;;;;2.00;0.55;;;20.20;71.70;;;;;;7374679;19;20018;-67
2023/10/15 12:21:39;;;;;;;3.80;0.52;;;19.40;69.00;;;;;;7369597;19;20025;-68
2023/10/15 12:24:09;;;;;;;3.38;0.68;;;19.40;69.20;;;;;;7372982;19;20489;-68
2023/10/15 12:26:35;;;;;;;3.13;0.57;;;19.40;68.70;;;;;;7371093;19;20021;-68
2023/10/15 12:29:03;;;;;;;3.08;0.65;;;19.60;69.80;;;;;;7366346;19;20470;-68
2023/10/15 12:31:32;;;;;;;4.78;0.80;;;19.90;66.50;;;;;;7369020;19;20117;-69
2023/10/15 12:34:02;;;;;;;2.63;0.70;;;19.90;67.30;;;;;;7365692;19;20017;-68
2023/10/15 12:36:28;;;;;;;5.72;0.65;;;20.20;68.00;;;;;;7371011;19;20021;-68
2023/10/15 12:38:58;;;;;;;5.97;1.13;;;20.20;67.30;;;;;;7368542;19;20018;-68
2023/10/15 12:41:25;;;;;;;3.88;0.88;;;20.20;66.90;;;;;;7373235;19;20112;-67
2023/10/15 12:43:58;;;;;;;4.30;0.60;;;20.60;66.40;;;;;;7371640;19;20022;-69
2023/10/15 12:46:26;;;;;;;6.15;1.00;;;20.40;66.50;;;;;;7368954;19;20041;-68
2023/10/15 12:48:53;;;;;;;3.70;0.70;;;20.30;65.80;;;;;;7368537;19;20021;-68
2023/10/15 12:51:21;;;;;;;3.28;0.82;;;20.40;65.90;;;;;;7372551;19;20011;-68
2023/10/15 12:53:47;;;;;;;6.50;1.20;;;20.40;67.20;;;;;;7369510;19;20372;-68
2023/10/15 12:56:13;;;;;;;3.92;0.88;;;20.70;65.90;;;;;;7380379;19;20053;-66
2023/10/15 12:58:40;;;;;;;5.88;1.08;;;20.20;65.30;;;;;;7374653;19;20021;-66
2023/10/15 13:01:07;;;;;;;3.08;0.88;;;20.00;64.40;;;;;;7375628;19;20719;-66
2023/10/15 13:03:34;;;;;;;4.20;0.93;;;19.60;62.90;;;;;;7376394;19;20037;-67
2023/10/15 13:06:01;;;;;;;5.28;0.90;;;18.50;63.80;;;;;;7370884;19;20488;-66
2023/10/15 13:08:27;;;;;;;4.80;1.40;;;17.00;67.00;;;;;;7375933;19;20053;-65
2023/10/15 13:10:53;;;;;;;3.97;1.00;;;15.40;73.20;;;;;;7373393;19;20015;-68
2023/10/15 13:13:19;;;;;;;4.78;1.02;;;14.80;79.80;;;;;;7368608;19;20153;-67
2023/10/15 13:15:47;;;;;;;3.70;0.73;;;14.00;89.10;;;;;;7363935;19;20037;-67
2023/10/15 13:18:13;;;;;;;5.30;0.80;;;13.30;97.60;;;;;;7372599;19;20030;-66
2023/10/15 13:20:39;;;;;;;7.57;1.15;;;13.00;99.90;;;;;;7370728;19;20018;-65
2023/10/15 13:23:08;;;;;;;6.70;1.23;;;13.10;99.90;;;;;;7374786;19;20048;-65
2023/10/15 13:25:35;;;;;;;6.53;1.20;;;13.00;99.90;;;;;;7367146;19;20019;-66
2023/10/15 13:28:01;;;;;;;7.05;1.17;;;13.30;99.90;;;;;;7369059;19;20018;-66